createdAt,value
2022-07-25T00:02:17.120Z,27.40
2022-07-25T00:04:47.247Z,27.40
2022-07-25T00:07:15.446Z,27.40
2022-07-25T00:09:44.013Z,27.40
2022-07-25T00:12:14.264Z,27.40
2022-07-25T00:14:42.983Z,27.30
2022-07-25T00:17:11.129Z,27.30
2022-07-25T00:19:39.932Z,27.30
2022-07-25T00:22:09.418Z,27.30
2022-07-25T00:24:37.557Z,27.20
2022-07-25T00:27:06.014Z,27.20
2022-07-25T00:29:34.145Z,27.20
2022-07-25T00:32:02.738Z,27.20
2022-07-25T00:34:30.875Z,27.10
2022-07-25T00:36:59.543Z,27.10
2022-07-25T00:39:29.310Z,27.10
2022-07-25T00:41:57.905Z,27.10
2022-07-25T00:44:26.539Z,27.00
2022-07-25T00:46:55.634Z,27.00
2022-07-25T00:49:24.724Z,27.00
2022-07-25T00:51:55.094Z,26.90
2022-07-25T00:54:23.427Z,26.90
2022-07-25T00:56:53.825Z,26.90
2022-07-25T00:59:21.957Z,26.80
2022-07-25T01:01:50.596Z,26.80
2022-07-25T01:04:18.927Z,26.80
2022-07-25T01:06:47.713Z,26.70
2022-07-25T01:09:16.476Z,26.70
2022-07-25T01:11:44.810Z,26.60
2022-07-25T01:14:14.387Z,26.60
2022-07-25T01:16:42.935Z,26.60
2022-07-25T01:19:11.068Z,26.60
2022-07-25T01:21:42.851Z,26.50
2022-07-25T01:24:11.925Z,26.50
2022-07-25T01:26:40.131Z,26.50
2022-07-25T01:29:08.792Z,26.40
2022-07-25T01:31:37.085Z,26.40
2022-07-25T01:34:05.952Z,26.40
2022-07-25T01:36:34.749Z,26.30
2022-07-25T01:39:04.430Z,26.30
2022-07-25T01:41:33.093Z,26.30
2022-07-25T01:44:01.266Z,26.20
2022-07-25T01:46:29.947Z,26.20
2022-07-25T01:48:58.672Z,26.20
2022-07-25T01:51:27.066Z,26.10
2022-07-25T01:53:55.214Z,26.10
2022-07-25T01:56:25.567Z,26.10
2022-07-25T01:58:53.697Z,26.10
2022-07-25T02:01:22.242Z,26.00
2022-07-25T02:03:51.391Z,26.00
2022-07-25T02:06:20.994Z,25.90
2022-07-25T02:08:49.821Z,25.90
2022-07-25T02:11:18.289Z,25.90
2022-07-25T02:13:48.417Z,25.80
2022-07-25T02:16:16.543Z,25.80
2022-07-25T02:18:44.746Z,25.80
2022-07-25T02:21:14.466Z,25.80
2022-07-25T02:23:43.507Z,25.70
2022-07-25T02:26:12.465Z,25.70
2022-07-25T02:28:41.808Z,25.60
2022-07-25T02:31:11.571Z,25.60
2022-07-25T02:33:40.198Z,25.60
2022-07-25T02:36:09.371Z,25.60
2022-07-25T02:38:37.974Z,25.50
2022-07-25T02:41:06.940Z,25.50
2022-07-25T02:43:35.154Z,25.50
2022-07-25T02:46:03.845Z,25.50
2022-07-25T02:48:33.547Z,25.40
2022-07-25T02:51:02.120Z,25.40
2022-07-25T02:53:54.868Z,25.40
2022-07-25T02:56:21.179Z,25.40
2022-07-25T02:58:50.060Z,25.30
2022-07-25T03:01:18.666Z,25.30
2022-07-25T03:03:48.250Z,25.30
2022-07-25T03:06:17.010Z,25.30
2022-07-25T03:08:45.207Z,25.20
2022-07-25T03:11:14.037Z,25.20
2022-07-25T03:13:42.164Z,25.20
2022-07-25T03:16:11.572Z,25.20
2022-07-25T03:18:40.171Z,25.20
2022-07-25T03:21:09.827Z,25.10
2022-07-25T03:23:39.153Z,25.10
2022-07-25T03:26:07.534Z,25.10
2022-07-25T03:28:36.087Z,25.10
2022-07-25T03:31:05.475Z,25.10
2022-07-25T03:33:34.073Z,25.10
2022-07-25T03:36:02.181Z,25.10
2022-07-25T03:38:32.102Z,25.10
2022-07-25T03:41:00.643Z,25.10
2022-07-25T03:43:28.835Z,25.10
2022-07-25T03:45:57.434Z,25.10
2022-07-25T03:48:26.019Z,25.10
2022-07-25T03:50:54.628Z,25.10
2022-07-25T03:53:23.160Z,25.10
2022-07-25T03:55:52.649Z,25.10
2022-07-25T03:58:21.277Z,25.10
2022-07-25T04:00:49.750Z,25.10
2022-07-25T04:03:18.339Z,25.10
2022-07-25T04:05:47.751Z,25.10
2022-07-25T04:08:16.568Z,25.10
2022-07-25T04:10:44.677Z,25.10
2022-07-25T04:13:14.193Z,25.10
2022-07-25T04:15:42.312Z,25.20
2022-07-25T04:18:14.238Z,25.20
2022-07-25T04:20:49.470Z,25.20
2022-07-25T04:23:17.595Z,25.20
2022-07-25T04:25:45.716Z,25.20
2022-07-25T04:28:15.637Z,25.30
2022-07-25T04:30:45.460Z,25.30
2022-07-25T04:33:14.299Z,25.30
2022-07-25T04:35:42.572Z,25.30
2022-07-25T04:38:12.337Z,25.30
2022-07-25T04:40:40.890Z,25.30
2022-07-25T04:43:09.573Z,25.30
2022-07-25T04:45:39.528Z,25.30
2022-07-25T04:48:08.737Z,25.30
2022-07-25T04:50:36.862Z,25.40
2022-07-25T04:53:05.278Z,25.30
2022-07-25T04:55:33.857Z,25.30
2022-07-25T04:58:02.376Z,25.30
2022-07-25T05:00:32.204Z,25.30
2022-07-25T05:03:01.865Z,25.30
2022-07-25T05:05:30.026Z,25.40
2022-07-25T05:07:59.018Z,25.40
2022-07-25T05:10:28.289Z,25.40
2022-07-25T05:12:56.807Z,25.40
2022-07-25T05:15:25.055Z,25.40
2022-07-25T05:17:54.100Z,25.50
2022-07-25T05:20:23.751Z,25.50
2022-07-25T05:22:51.951Z,25.50
2022-07-25T05:25:21.259Z,25.50
2022-07-25T05:27:49.783Z,25.60
2022-07-25T05:30:17.894Z,25.60
2022-07-25T05:32:46.418Z,25.60
2022-07-25T05:35:16.389Z,25.60
2022-07-25T05:37:45.876Z,25.70
2022-07-25T05:40:14.277Z,25.70
2022-07-25T05:42:42.813Z,25.70
2022-07-25T05:45:11.387Z,25.80
2022-07-25T05:47:39.932Z,25.80
2022-07-25T05:50:10.180Z,25.90
2022-07-25T05:52:38.717Z,25.90
2022-07-25T05:55:08.897Z,26.00
2022-07-25T05:57:38.015Z,26.00
2022-07-25T06:00:07.358Z,26.10
2022-07-25T06:02:36.029Z,26.10
2022-07-25T06:05:05.711Z,26.10
2022-07-25T06:07:34.294Z,26.20
2022-07-25T06:10:02.808Z,26.20
2022-07-25T06:12:33.744Z,26.30
2022-07-25T06:15:12.494Z,26.30
2022-07-25T06:17:50.797Z,26.30
2022-07-25T06:20:19.350Z,26.40
2022-07-25T06:22:47.432Z,26.40
2022-07-25T06:25:16.042Z,26.50
2022-07-25T06:27:45.587Z,26.50
2022-07-25T06:30:20.257Z,26.50
2022-07-25T06:32:49.217Z,26.60
2022-07-25T06:35:17.854Z,26.60
2022-07-25T06:37:46.661Z,26.60
2022-07-25T06:40:14.848Z,26.70
2022-07-25T06:42:46.308Z,26.70
2022-07-25T06:45:15.828Z,26.70
2022-07-25T06:47:45.566Z,26.80
2022-07-25T06:50:15.665Z,26.80
2022-07-25T06:52:44.437Z,26.90
2022-07-25T06:55:15.466Z,26.90
2022-07-25T06:57:45.555Z,26.90
2022-07-25T07:00:14.903Z,26.90
2022-07-25T07:02:50.737Z,27.00
2022-07-25T07:05:19.554Z,27.00
2022-07-25T07:07:48.229Z,27.00
2022-07-25T07:10:16.705Z,27.10
2022-07-25T07:12:46.737Z,27.10
2022-07-25T07:15:14.869Z,27.10
2022-07-25T07:17:43.511Z,27.10
2022-07-25T07:20:12.833Z,27.20
2022-07-25T07:22:46.532Z,27.00
2022-07-25T07:25:16.657Z,27.10
2022-07-25T07:27:47.562Z,27.20
2022-07-25T07:30:16.845Z,27.30
2022-07-25T07:32:48.463Z,27.30
2022-07-25T07:35:19.119Z,27.40
2022-07-25T07:37:48.430Z,27.50
2022-07-25T07:40:18.340Z,27.60
2022-07-25T07:42:50.862Z,27.70
2022-07-25T07:45:21.524Z,27.70
2022-07-25T07:47:51.603Z,27.80
2022-07-25T07:50:22.849Z,27.90
2022-07-25T07:52:51.884Z,28.00
2022-07-25T07:55:37.873Z,28.10
2022-07-25T07:58:07.723Z,28.10
2022-07-25T08:00:39.463Z,28.20
2022-07-25T08:03:08.830Z,28.20
2022-07-25T08:05:39.823Z,28.30
2022-07-25T08:08:10.191Z,28.40
2022-07-25T08:10:39.813Z,28.40
2022-07-25T08:13:17.140Z,28.50
2022-07-25T08:15:47.743Z,28.60
2022-07-25T08:18:18.127Z,28.60
2022-07-25T08:20:47.120Z,28.40
2022-07-25T08:23:15.528Z,28.70
2022-07-25T08:25:44.844Z,28.70
2022-07-25T08:28:15.212Z,28.80
2022-07-25T08:30:43.862Z,28.90
2022-07-25T08:33:13.914Z,28.90
2022-07-25T08:35:47.133Z,29.00
2022-07-25T08:38:15.399Z,29.10
2022-07-25T08:40:43.644Z,29.10
2022-07-25T08:43:15.052Z,29.20
2022-07-25T08:45:47.458Z,29.20
2022-07-25T08:48:18.350Z,29.30
2022-07-25T08:50:48.410Z,29.30
2022-07-25T08:53:35.619Z,29.40
2022-07-25T08:56:14.867Z,29.50
2022-07-25T08:58:47.760Z,29.50
2022-07-25T09:01:16.134Z,29.60
2022-07-25T09:03:45.177Z,29.60
2022-07-25T09:06:19.252Z,29.70
2022-07-25T09:08:55.108Z,29.70
2022-07-25T09:11:31.697Z,29.80
2022-07-25T09:14:04.890Z,29.80
2022-07-25T09:16:35.832Z,29.80
2022-07-25T09:19:22.451Z,29.20
2022-07-25T09:22:01.981Z,29.90
2022-07-25T09:24:31.322Z,30.00
2022-07-25T09:27:01.185Z,30.00
2022-07-25T09:29:31.898Z,30.10
2022-07-25T09:32:02.498Z,30.10
2022-07-25T09:34:34.515Z,30.20
2022-07-25T09:37:03.944Z,30.20
2022-07-25T09:39:46.103Z,30.30
2022-07-25T09:42:21.320Z,30.30
2022-07-25T09:45:03.203Z,30.40
2022-07-25T09:47:32.752Z,30.40
2022-07-25T09:50:01.862Z,30.50
2022-07-25T09:52:30.446Z,30.50
2022-07-25T09:54:59.311Z,30.60
2022-07-25T09:57:29.008Z,30.70
2022-07-25T09:59:57.701Z,30.70
2022-07-25T10:02:41.931Z,30.80
2022-07-25T10:05:15.917Z,30.80
2022-07-25T10:07:47.748Z,30.90
2022-07-25T10:10:25.970Z,31.00
2022-07-25T10:13:10.194Z,31.00
2022-07-25T10:15:44.636Z,31.10
2022-07-25T10:18:14.903Z,31.10
2022-07-25T10:20:44.159Z,31.20
2022-07-25T10:23:22.850Z,31.30
2022-07-25T10:26:05.539Z,31.30
2022-07-25T10:28:43.304Z,31.40
2022-07-25T10:31:27.868Z,31.50
2022-07-25T10:33:59.771Z,31.50
2022-07-25T10:36:33.678Z,31.60
2022-07-25T10:39:03.370Z,31.70
2022-07-25T10:41:32.097Z,31.70
2022-07-25T10:44:04.008Z,31.80
2022-07-25T10:46:37.050Z,31.80
2022-07-25T10:49:09.367Z,31.90
2022-07-25T10:51:41.934Z,32.00
2022-07-25T10:54:15.010Z,32.00
2022-07-25T10:56:54.331Z,32.10
2022-07-25T10:59:35.126Z,32.20
2022-07-25T11:02:04.164Z,32.20
2022-07-25T11:04:34.241Z,32.30
2022-07-25T11:07:10.971Z,32.40
2022-07-25T11:09:39.912Z,32.50
2022-07-25T11:12:09.256Z,32.60
2022-07-25T11:14:41.469Z,32.70
2022-07-25T11:17:16.876Z,32.80
2022-07-25T11:19:55.902Z,32.90
2022-07-25T11:22:24.197Z,33.00
2022-07-25T11:24:52.882Z,33.10
2022-07-25T11:27:26.204Z,33.20
2022-07-25T11:29:55.431Z,33.30
2022-07-25T11:32:24.007Z,33.40
2022-07-25T11:34:55.323Z,33.50
2022-07-25T11:37:24.023Z,33.60
2022-07-25T11:39:53.069Z,33.60
2022-07-25T11:42:21.995Z,33.70
2022-07-25T11:44:52.655Z,33.80
2022-07-25T11:47:26.236Z,33.90
2022-07-25T11:49:58.250Z,34.00
2022-07-25T11:52:29.908Z,34.10
2022-07-25T11:55:00.822Z,34.10
2022-07-25T11:57:30.743Z,34.20
2022-07-25T12:00:01.397Z,34.20
2022-07-25T12:02:31.659Z,34.30
2022-07-25T12:05:03.344Z,34.40
2022-07-25T12:07:42.340Z,34.50
2022-07-25T12:10:14.112Z,34.60
2022-07-25T12:12:51.382Z,34.70
2022-07-25T12:15:22.439Z,34.80
2022-07-25T12:17:52.065Z,34.90
2022-07-25T12:20:23.581Z,35.00
2022-07-25T12:22:53.788Z,35.10
2022-07-25T12:25:24.391Z,35.20
2022-07-25T12:27:56.206Z,35.30
2022-07-25T12:30:24.417Z,35.40
2022-07-25T12:32:53.155Z,35.50
2022-07-25T12:35:23.494Z,35.60
2022-07-25T12:37:52.447Z,35.60
2022-07-25T12:40:21.182Z,35.70
2022-07-25T12:42:50.363Z,35.80
2022-07-25T12:45:18.732Z,35.90
2022-07-25T12:47:48.495Z,36.00
2022-07-25T12:50:18.473Z,36.00
2022-07-25T12:52:48.249Z,36.20
2022-07-25T12:55:19.077Z,36.20
2022-07-25T12:57:48.014Z,36.30
2022-07-25T13:00:17.892Z,36.40
2022-07-25T13:02:46.576Z,36.50
2022-07-25T13:05:14.883Z,36.50
2022-07-25T13:07:43.298Z,36.60
2022-07-25T13:10:13.321Z,36.70
2022-07-25T13:12:41.982Z,36.80
2022-07-25T13:15:11.469Z,36.80
2022-07-25T13:17:40.485Z,36.90
2022-07-25T13:20:10.609Z,37.00
2022-07-25T13:22:39.530Z,37.10
2022-07-25T13:25:08.681Z,37.20
2022-07-25T13:27:39.702Z,37.20
2022-07-25T13:30:09.160Z,37.30
2022-07-25T13:32:37.920Z,37.40
2022-07-25T13:35:07.342Z,37.40
2022-07-25T13:37:35.603Z,37.50
2022-07-25T13:40:04.313Z,37.40
2022-07-25T13:42:32.724Z,37.50
2022-07-25T13:45:02.849Z,37.50
2022-07-25T13:47:31.417Z,37.50
2022-07-25T13:50:00.009Z,37.60
2022-07-25T13:52:28.235Z,37.60
2022-07-25T13:54:56.396Z,37.60
2022-07-25T13:57:24.570Z,37.70
2022-07-25T13:59:52.743Z,37.70
2022-07-25T14:02:22.604Z,37.70
2022-07-25T14:04:50.833Z,37.70
2022-07-25T14:07:19.025Z,37.70
2022-07-25T14:09:47.636Z,37.80
2022-07-25T14:12:16.238Z,37.80
2022-07-25T14:14:44.395Z,37.70
2022-07-25T14:17:12.623Z,37.70
2022-07-25T14:19:42.726Z,37.70
2022-07-25T14:22:11.043Z,37.70
2022-07-25T14:24:39.667Z,37.60
2022-07-25T14:27:07.859Z,37.60
2022-07-25T14:29:38.410Z,37.60
2022-07-25T14:32:07.946Z,37.50
2022-07-25T14:34:36.757Z,37.50
2022-07-25T14:37:06.458Z,37.40
2022-07-25T14:39:37.004Z,37.30
2022-07-25T14:42:05.960Z,37.30
2022-07-25T14:44:34.509Z,37.20
2022-07-25T14:47:10.457Z,37.10
2022-07-25T14:49:41.982Z,37.00
2022-07-25T14:52:12.998Z,36.90
2022-07-25T14:54:41.754Z,36.80
2022-07-25T14:57:10.693Z,36.70
2022-07-25T14:59:39.400Z,36.60
2022-07-25T15:02:07.600Z,36.40
2022-07-25T15:04:36.295Z,36.30
2022-07-25T15:07:04.657Z,36.20
2022-07-25T15:09:34.614Z,36.20
2022-07-25T15:12:02.779Z,36.00
2022-07-25T15:14:31.445Z,36.00
2022-07-25T15:16:59.607Z,35.90
2022-07-25T15:19:28.631Z,35.80
2022-07-25T15:21:56.933Z,35.70
2022-07-25T15:24:29.043Z,35.70
2022-07-25T15:26:59.136Z,35.60
2022-07-25T15:29:28.734Z,35.60
2022-07-25T15:31:57.463Z,35.60
2022-07-25T15:34:25.659Z,35.60
2022-07-25T15:36:56.693Z,35.50
2022-07-25T15:39:25.004Z,35.50
2022-07-25T15:41:53.566Z,35.50
2022-07-25T15:44:23.140Z,35.50
2022-07-25T15:46:53.609Z,35.40
2022-07-25T15:49:23.083Z,35.40
2022-07-25T15:51:51.747Z,35.40
2022-07-25T15:54:19.907Z,35.40
2022-07-25T15:56:48.090Z,35.30
2022-07-25T15:59:16.380Z,35.30
2022-07-25T16:01:46.356Z,35.30
2022-07-25T16:04:14.577Z,35.20
2022-07-25T16:06:42.979Z,35.10
2022-07-25T16:09:12.487Z,35.10
2022-07-25T16:11:40.843Z,35.00
2022-07-25T16:14:10.466Z,35.00
2022-07-25T16:16:38.703Z,34.90
2022-07-25T16:19:09.386Z,34.90
2022-07-25T16:21:38.894Z,34.80
2022-07-25T16:24:08.255Z,34.80
2022-07-25T16:26:36.440Z,34.80
2022-07-25T16:29:05.390Z,34.80
2022-07-25T16:31:34.076Z,34.80
2022-07-25T16:34:02.310Z,34.80
2022-07-25T16:36:31.909Z,34.90
2022-07-25T16:39:00.090Z,34.90
2022-07-25T16:41:28.691Z,34.90
2022-07-25T16:43:58.625Z,34.90
2022-07-25T16:46:28.567Z,34.90
2022-07-25T16:48:57.166Z,34.90
2022-07-25T16:51:25.353Z,34.90
2022-07-25T16:53:55.489Z,34.90
2022-07-25T16:56:23.763Z,35.00
2022-07-25T16:58:52.074Z,35.00
2022-07-25T17:01:20.815Z,35.00
2022-07-25T17:03:49.545Z,35.00
2022-07-25T17:06:17.998Z,35.00
2022-07-25T17:08:46.837Z,35.10
2022-07-25T17:11:16.616Z,35.10
2022-07-25T17:13:44.889Z,35.10
2022-07-25T17:16:13.576Z,35.10
2022-07-25T17:18:41.861Z,35.10
2022-07-25T17:21:11.138Z,35.10
2022-07-25T17:23:39.331Z,35.10
2022-07-25T17:26:07.668Z,35.10
2022-07-25T17:28:38.212Z,35.10
2022-07-25T17:31:06.740Z,35.10
2022-07-25T17:33:35.474Z,35.00
2022-07-25T17:36:03.695Z,35.00
2022-07-25T17:38:34.959Z,35.00
2022-07-25T17:41:03.678Z,35.00
2022-07-25T17:43:32.011Z,35.00
2022-07-25T17:46:02.290Z,35.00
2022-07-25T17:48:30.695Z,35.00
2022-07-25T17:50:59.440Z,34.90
2022-07-25T17:53:28.068Z,34.90
2022-07-25T17:55:56.229Z,34.90
2022-07-25T17:58:24.891Z,34.80
2022-07-25T18:00:56.860Z,34.80
2022-07-25T18:03:29.223Z,34.80
2022-07-25T18:05:57.371Z,34.80
2022-07-25T18:08:25.581Z,34.70
2022-07-25T18:10:53.761Z,34.70
2022-07-25T18:13:22.575Z,34.70
2022-07-25T18:15:52.798Z,34.60
2022-07-25T18:18:21.206Z,34.50
2022-07-25T18:20:50.820Z,34.50
2022-07-25T18:23:19.180Z,34.40
2022-07-25T18:25:47.499Z,34.40
2022-07-25T18:28:16.001Z,34.30
2022-07-25T18:30:44.321Z,34.30
2022-07-25T18:33:12.706Z,34.20
2022-07-25T18:35:40.926Z,34.20
2022-07-25T18:38:11.661Z,34.10
2022-07-25T18:40:39.873Z,34.00
2022-07-25T18:43:09.053Z,34.00
2022-07-25T18:45:39.211Z,34.00
2022-07-25T18:48:08.842Z,33.90
2022-07-25T18:50:37.146Z,33.90
2022-07-25T18:53:06.158Z,33.80
2022-07-25T18:55:36.482Z,33.80
2022-07-25T18:58:05.466Z,33.70
2022-07-25T19:00:34.110Z,33.70
2022-07-25T19:03:02.509Z,33.60
2022-07-25T19:05:31.155Z,33.60
2022-07-25T19:08:01.143Z,33.50
2022-07-25T19:10:29.741Z,33.50
2022-07-25T19:12:59.470Z,33.40
2022-07-25T19:15:28.960Z,33.40
2022-07-25T19:17:57.774Z,33.30
2022-07-25T19:20:26.628Z,33.30
2022-07-25T19:22:55.246Z,33.30
2022-07-25T19:25:23.565Z,33.20
2022-07-25T19:27:51.903Z,33.20
2022-07-25T19:30:21.655Z,33.10
2022-07-25T19:32:49.928Z,33.10
2022-07-25T19:35:24.102Z,33.10
2022-07-25T19:37:54.219Z,33.00
2022-07-25T19:40:22.607Z,33.00
2022-07-25T19:42:51.223Z,33.00
2022-07-25T19:45:19.776Z,32.90
2022-07-25T19:47:49.589Z,32.90
2022-07-25T19:50:18.212Z,32.80
2022-07-25T19:52:46.868Z,32.80
2022-07-25T19:55:15.462Z,32.80
2022-07-25T19:57:44.030Z,32.70
2022-07-25T20:00:13.044Z,32.60
2022-07-25T20:02:41.702Z,32.60
2022-07-25T20:05:12.918Z,32.50
2022-07-25T20:07:41.150Z,32.50
2022-07-25T20:10:10.316Z,32.40
2022-07-25T20:12:39.155Z,32.40
2022-07-25T20:15:08.157Z,32.30
2022-07-25T20:17:36.746Z,32.20
2022-07-25T20:20:06.659Z,32.20
2022-07-25T20:22:38.400Z,32.10
2022-07-25T20:25:09.163Z,32.10
2022-07-25T20:27:37.807Z,32.00
2022-07-25T20:30:08.133Z,32.00
2022-07-25T20:32:36.937Z,31.90
2022-07-25T20:35:06.126Z,31.90
2022-07-25T20:37:36.290Z,31.80
2022-07-25T20:40:05.526Z,31.70
2022-07-25T20:42:34.209Z,31.70
2022-07-25T20:45:02.780Z,31.60
2022-07-25T20:47:30.921Z,31.60
2022-07-25T20:49:59.499Z,31.60
2022-07-25T20:52:28.203Z,31.50
2022-07-25T20:54:57.700Z,31.50
2022-07-25T20:57:26.476Z,31.40
2022-07-25T20:59:54.633Z,31.40
2022-07-25T21:02:23.303Z,31.30
2022-07-25T21:04:51.912Z,31.30
2022-07-25T21:07:20.751Z,31.30
2022-07-25T21:09:49.472Z,31.20
2022-07-25T21:12:19.495Z,31.20
2022-07-25T21:14:48.080Z,31.10
2022-07-25T21:17:16.329Z,31.10
2022-07-25T21:19:44.914Z,31.10
2022-07-25T21:22:13.120Z,31.00
2022-07-25T21:24:41.613Z,31.00
2022-07-25T21:27:10.176Z,31.00
2022-07-25T21:29:40.152Z,30.90
2022-07-25T21:32:08.676Z,30.90
2022-07-25T21:34:36.905Z,30.80
2022-07-25T21:37:05.120Z,30.80
2022-07-25T21:39:33.810Z,30.70
2022-07-25T21:42:02.594Z,30.70
2022-07-25T21:44:32.521Z,30.60
2022-07-25T21:47:02.446Z,30.60
2022-07-25T21:49:48.458Z,30.60
2022-07-25T21:52:17.793Z,30.50
2022-07-25T21:54:46.575Z,30.50
2022-07-25T21:57:15.257Z,30.50
2022-07-25T21:59:44.266Z,30.40
2022-07-25T22:02:14.741Z,30.40
2022-07-25T22:04:43.339Z,30.40
2022-07-25T22:07:11.896Z,30.30
2022-07-25T22:09:40.609Z,30.30
2022-07-25T22:12:09.482Z,30.30
2022-07-25T22:14:38.214Z,30.20
2022-07-25T22:17:06.789Z,30.20
2022-07-25T22:19:36.750Z,30.20
2022-07-25T22:22:06.799Z,30.10
2022-07-25T22:24:35.474Z,30.10
2022-07-25T22:27:03.575Z,30.10
2022-07-25T22:29:31.899Z,30.00
2022-07-25T22:32:00.545Z,30.00
2022-07-25T22:34:29.222Z,30.00
2022-07-25T22:36:59.147Z,30.00
2022-07-25T22:39:27.329Z,29.90
2022-07-25T22:41:55.681Z,29.90
2022-07-25T22:44:24.012Z,29.90
2022-07-25T22:46:52.135Z,29.90
2022-07-25T22:49:20.373Z,29.90
2022-07-25T22:51:49.416Z,29.80
2022-07-25T22:54:19.155Z,29.80
2022-07-25T22:56:47.936Z,29.80
2022-07-25T22:59:19.452Z,29.80
2022-07-25T23:01:48.034Z,29.70
2022-07-25T23:04:16.227Z,29.70
2022-07-25T23:06:44.551Z,29.70
2022-07-25T23:09:13.560Z,29.70
2022-07-25T23:11:43.698Z,29.70
2022-07-25T23:14:12.440Z,29.60
2022-07-25T23:16:40.596Z,29.60
2022-07-25T23:19:09.649Z,29.60
2022-07-25T23:21:39.035Z,29.50
2022-07-25T23:24:07.850Z,29.50
2022-07-25T23:26:36.324Z,29.50
2022-07-25T23:29:06.076Z,29.40
2022-07-25T23:31:34.839Z,29.40
2022-07-25T23:34:04.819Z,29.40
2022-07-25T23:36:33.368Z,29.30
2022-07-25T23:39:01.894Z,29.30
2022-07-25T23:41:30.776Z,29.30
2022-07-25T23:44:01.027Z,29.30
2022-07-25T23:46:31.924Z,29.20
2022-07-25T23:49:01.295Z,29.20
2022-07-25T23:51:29.929Z,29.20
2022-07-25T23:53:58.544Z,29.20
2022-07-25T23:56:27.274Z,29.20
2022-07-25T23:58:55.796Z,29.10
